createdAt,value
2023-05-04T00:00:21.448Z,100119.05
2023-05-04T00:02:48.895Z,100116.55
2023-05-04T00:05:16.760Z,100112.41
2023-05-04T00:07:44.221Z,100109.17
2023-05-04T00:10:11.676Z,100110.31
2023-05-04T00:12:39.567Z,100109.06
2023-05-04T00:15:07.225Z,100106.64
2023-05-04T00:17:34.897Z,100103.12
2023-05-04T00:20:02.512Z,100100.70
2023-05-04T00:22:30.288Z,100102.33
2023-05-04T00:24:57.852Z,100103.03
2023-05-04T00:27:25.196Z,100102.97
2023-05-04T00:29:53.081Z,100108.23
2023-05-04T00:32:21.150Z,100107.77
2023-05-04T00:34:48.802Z,100109.94
2023-05-04T00:37:16.363Z,100109.24
2023-05-04T00:39:43.717Z,100106.61
2023-05-04T00:42:11.092Z,100103.47
2023-05-04T00:44:41.703Z,100100.79
2023-05-04T00:47:09.651Z,100098.55
2023-05-04T00:49:37.031Z,100097.67
2023-05-04T00:52:05.303Z,100098.80
2023-05-04T00:54:33.302Z,100098.77
2023-05-04T00:57:00.628Z,100102.17
2023-05-04T00:59:27.978Z,100104.27
2023-05-04T01:01:55.542Z,100106.88
2023-05-04T01:04:22.792Z,100103.88
2023-05-04T01:06:50.362Z,100101.75
2023-05-04T01:09:37.777Z,100105.55
2023-05-04T01:12:06.397Z,100100.65
2023-05-04T01:14:34.197Z,100104.73
2023-05-04T01:17:02.912Z,100098.04
2023-05-04T01:19:30.876Z,100090.88
2023-05-04T01:21:58.743Z,100092.80
2023-05-04T01:24:27.033Z,100085.49
2023-05-04T01:27:04.717Z,100081.65
2023-05-04T01:29:33.195Z,100076.83
2023-05-04T01:32:00.653Z,100076.70
2023-05-04T01:34:28.315Z,100072.10
2023-05-04T01:36:55.876Z,100066.75
2023-05-04T01:39:23.226Z,100063.95
2023-05-04T01:41:50.813Z,100055.42
2023-05-04T01:44:18.342Z,100054.85
2023-05-04T01:46:46.052Z,100045.86
2023-05-04T01:49:13.460Z,100045.98
2023-05-04T01:51:40.917Z,100041.89
2023-05-04T01:54:08.677Z,100039.88
2023-05-04T01:56:36.132Z,100039.22
2023-05-04T01:59:03.790Z,100035.23
2023-05-04T02:01:31.297Z,100031.66
2023-05-04T02:03:58.955Z,100027.49
2023-05-04T02:06:26.964Z,100026.72
2023-05-04T02:08:54.238Z,100016.77
2023-05-04T02:11:21.906Z,100015.62
2023-05-04T02:13:49.454Z,100011.90
2023-05-04T02:16:17.254Z,100005.11
2023-05-04T02:18:44.672Z,100001.12
2023-05-04T02:21:13.068Z,100001.59
2023-05-04T02:23:44.401Z,100001.61
2023-05-04T02:26:11.863Z,99999.44
2023-05-04T02:28:39.633Z,100001.42
2023-05-04T02:31:06.991Z,99998.79
2023-05-04T02:33:36.068Z,99997.15
2023-05-04T02:36:03.736Z,99993.19
2023-05-04T02:38:31.200Z,99988.25
2023-05-04T02:40:58.852Z,99984.81
2023-05-04T02:43:26.353Z,99984.48
2023-05-04T02:45:54.422Z,99982.28
2023-05-04T02:48:21.869Z,99987.19
2023-05-04T02:50:49.401Z,99994.03
2023-05-04T02:53:16.961Z,99996.79
2023-05-04T02:55:44.313Z,99995.40
2023-05-04T02:58:11.868Z,99989.82
2023-05-04T03:00:39.537Z,99982.95
2023-05-04T03:03:07.657Z,99978.08
2023-05-04T03:05:35.375Z,99970.55
2023-05-04T03:08:02.925Z,99964.26
2023-05-04T03:10:30.499Z,99956.58
2023-05-04T03:12:58.010Z,99951.10
2023-05-04T03:15:25.676Z,99952.29
2023-05-04T03:17:53.591Z,99952.69
2023-05-04T03:20:21.758Z,99952.24
2023-05-04T03:22:49.112Z,99952.34
2023-05-04T03:25:16.968Z,99955.20
2023-05-04T03:27:44.738Z,99951.39
2023-05-04T03:30:12.796Z,99954.27
2023-05-04T03:32:41.293Z,99957.94
2023-05-04T03:35:09.658Z,99961.09
2023-05-04T03:37:37.321Z,99967.30
2023-05-04T03:40:05.248Z,99967.16
2023-05-04T03:42:33.154Z,99964.43
2023-05-04T03:45:03.217Z,99958.10
2023-05-04T03:47:31.578Z,99961.95
2023-05-04T03:49:59.194Z,99961.14
2023-05-04T03:52:26.883Z,99962.55
2023-05-04T03:54:54.433Z,99958.95
2023-05-04T03:57:22.712Z,99958.87
2023-05-04T03:59:51.128Z,99958.05
2023-05-04T04:02:18.957Z,99956.33
2023-05-04T04:04:46.747Z,99955.89
2023-05-04T04:07:15.336Z,99957.45
2023-05-04T04:09:42.771Z,99959.20
2023-05-04T04:12:10.223Z,99958.98
2023-05-04T04:14:37.978Z,99957.61
2023-05-04T04:17:05.844Z,99957.27
2023-05-04T04:19:33.261Z,99964.18
2023-05-04T04:22:01.062Z,99956.48
2023-05-04T04:24:28.533Z,99956.91
2023-05-04T04:26:56.084Z,99962.60
2023-05-04T04:29:23.749Z,99969.59
2023-05-04T04:31:51.500Z,99976.26
2023-05-04T04:34:19.267Z,99983.56
2023-05-04T04:36:46.622Z,99992.52
2023-05-04T04:39:14.628Z,100001.14
2023-05-04T04:41:42.256Z,100007.95
2023-05-04T04:44:09.736Z,100014.71
2023-05-04T04:46:37.285Z,100025.68
2023-05-04T04:49:05.033Z,100040.33
2023-05-04T04:51:33.111Z,100050.32
2023-05-04T04:54:00.878Z,100044.41
2023-05-04T04:56:28.338Z,100059.75
2023-05-04T04:58:55.983Z,100072.08
2023-05-04T05:01:24.079Z,100071.36
2023-05-04T05:03:51.522Z,100075.54
2023-05-04T05:06:18.876Z,100081.42
2023-05-04T05:08:46.632Z,100083.27
2023-05-04T05:11:14.743Z,100092.38
2023-05-04T05:13:43.486Z,100100.35
2023-05-04T05:16:11.076Z,100111.04
2023-05-04T05:18:38.607Z,100123.87
2023-05-04T05:21:07.804Z,100136.02
2023-05-04T05:23:35.993Z,100143.14
2023-05-04T05:26:03.562Z,100155.77
2023-05-04T05:28:32.531Z,100167.80
2023-05-04T05:31:00.134Z,100182.35
2023-05-04T05:33:28.377Z,100193.79
2023-05-04T05:35:56.047Z,100194.60
2023-05-04T05:38:23.603Z,100196.34
2023-05-04T05:40:51.463Z,100200.02
2023-05-04T05:43:18.941Z,100200.83
2023-05-04T05:45:46.416Z,100208.33
2023-05-04T05:48:14.127Z,100211.12
2023-05-04T05:50:41.898Z,100208.52
2023-05-04T05:53:09.250Z,100209.32
2023-05-04T05:55:36.599Z,100210.58
2023-05-04T05:58:06.119Z,100210.30
2023-05-04T06:00:33.872Z,100213.72
2023-05-04T06:03:01.684Z,100211.88
2023-05-04T06:05:29.602Z,100212.52
2023-05-04T06:07:57.073Z,100217.72
2023-05-04T06:10:25.036Z,100220.27
2023-05-04T06:12:52.731Z,100221.73
2023-05-04T06:15:20.451Z,100223.05
2023-05-04T06:17:49.120Z,100227.48
2023-05-04T06:20:17.010Z,100232.00
2023-05-04T06:22:44.663Z,100233.77
2023-05-04T06:25:12.733Z,100235.48
2023-05-04T06:27:40.465Z,100230.63
2023-05-04T06:30:09.080Z,100230.36
2023-05-04T06:32:37.388Z,100230.94
2023-05-04T06:35:05.436Z,100230.50
2023-05-04T06:37:32.798Z,100229.52
2023-05-04T06:40:00.490Z,100232.88
2023-05-04T06:42:31.992Z,100231.21
2023-05-04T06:44:59.476Z,100231.07
2023-05-04T06:47:27.874Z,100229.36
2023-05-04T06:49:55.285Z,100230.59
2023-05-04T06:52:22.894Z,100231.70
2023-05-04T06:54:50.506Z,100235.66
2023-05-04T06:57:18.289Z,100234.55
2023-05-04T06:59:46.247Z,100237.77
2023-05-04T07:02:13.900Z,100233.71
2023-05-04T07:04:41.805Z,100234.16
2023-05-04T07:07:09.440Z,100226.77
2023-05-04T07:09:36.782Z,100223.67
2023-05-04T07:12:05.060Z,100228.65
2023-05-04T07:14:32.513Z,100223.10
2023-05-04T07:17:00.481Z,100228.84
2023-05-04T07:19:27.849Z,100226.66
2023-05-04T07:21:56.306Z,100227.92
2023-05-04T07:24:23.729Z,100224.83
2023-05-04T07:26:51.317Z,100229.59
2023-05-04T07:29:18.758Z,100225.73
2023-05-04T07:31:46.370Z,100223.77
2023-05-04T07:34:13.892Z,100214.99
2023-05-04T07:36:43.263Z,100213.25
2023-05-04T07:39:11.297Z,100212.48
2023-05-04T07:41:38.732Z,100213.80
2023-05-04T07:44:08.869Z,100207.92
2023-05-04T07:46:36.551Z,100202.83
2023-05-04T07:49:04.386Z,100207.75
2023-05-04T07:51:31.945Z,100209.81
2023-05-04T07:54:00.218Z,100213.82
2023-05-04T07:56:27.775Z,100214.02
2023-05-04T07:58:55.239Z,100213.60
2023-05-04T08:01:22.584Z,100213.58
2023-05-04T08:03:50.143Z,100215.36
2023-05-04T08:06:17.806Z,100217.39
2023-05-04T08:08:46.810Z,100213.78
2023-05-04T08:11:20.748Z,100212.73
2023-05-04T08:13:48.818Z,100209.38
2023-05-04T08:16:16.550Z,100209.64
2023-05-04T08:18:43.905Z,100213.65
2023-05-04T08:21:11.251Z,100211.59
2023-05-04T08:23:38.912Z,100210.23
2023-05-04T08:26:06.575Z,100213.98
2023-05-04T08:28:35.566Z,100214.20
2023-05-04T08:31:04.154Z,100209.19
2023-05-04T08:33:32.338Z,100206.56
2023-05-04T08:36:00.302Z,100204.05
2023-05-04T08:38:28.164Z,100198.46
2023-05-04T08:40:55.523Z,100200.59
2023-05-04T08:43:22.974Z,100196.13
2023-05-04T08:45:51.282Z,100192.05
2023-05-04T08:48:18.917Z,100191.04
2023-05-04T08:50:46.404Z,100191.10
2023-05-04T08:53:14.648Z,100193.70
2023-05-04T08:55:42.515Z,100187.79
2023-05-04T08:58:10.680Z,100187.73
2023-05-04T09:00:39.118Z,100195.10
2023-05-04T09:03:06.709Z,100193.56
2023-05-04T09:05:34.493Z,100197.84
2023-05-04T09:08:01.941Z,100192.73
2023-05-04T09:10:29.870Z,100195.73
2023-05-04T09:12:57.462Z,100190.75
2023-05-04T09:15:24.941Z,100185.76
2023-05-04T09:17:57.678Z,100176.69
2023-05-04T09:20:28.552Z,100176.17
2023-05-04T09:23:03.383Z,100172.83
2023-05-04T09:25:31.326Z,100161.77
2023-05-04T09:27:58.749Z,100162.15
2023-05-04T09:30:26.469Z,100161.15
2023-05-04T09:32:54.687Z,100154.66
2023-05-04T09:35:33.639Z,100156.02
2023-05-04T09:38:01.717Z,100145.29
2023-05-04T09:40:40.332Z,100149.34
2023-05-04T09:43:08.836Z,100157.09
2023-05-04T09:45:40.388Z,100154.83
2023-05-04T09:48:27.338Z,100156.63
2023-05-04T09:50:55.396Z,100153.52
2023-05-04T09:53:28.146Z,100151.71
2023-05-04T09:56:15.067Z,100149.55
2023-05-04T09:58:43.320Z,100148.70
2023-05-04T10:01:10.945Z,100147.40
2023-05-04T10:03:38.465Z,100147.17
2023-05-04T10:06:06.223Z,100146.77
2023-05-04T10:08:33.665Z,100146.14
2023-05-04T10:11:01.333Z,100143.21
2023-05-04T10:13:28.693Z,100142.73
2023-05-04T10:16:15.960Z,100137.40
2023-05-04T10:18:59.032Z,100139.63
2023-05-04T10:21:29.359Z,100134.33
2023-05-04T10:24:03.144Z,100135.08
2023-05-04T10:26:37.786Z,100131.21
2023-05-04T10:29:08.422Z,100129.00
2023-05-04T10:31:39.821Z,100129.98
2023-05-04T10:34:07.632Z,100126.84
2023-05-04T10:36:38.698Z,100128.48
2023-05-04T10:39:16.882Z,100125.17
2023-05-04T10:41:56.009Z,100121.21
2023-05-04T10:44:23.480Z,100112.67
2023-05-04T10:46:59.732Z,100108.09
2023-05-04T10:49:27.489Z,100105.08
2023-05-04T10:52:16.357Z,100098.36
2023-05-04T10:54:44.169Z,100093.23
2023-05-04T10:57:12.786Z,100091.22
2023-05-04T10:59:39.971Z,100088.48
2023-05-04T11:02:07.825Z,100088.36
2023-05-04T11:04:35.089Z,100082.55
2023-05-04T11:07:03.087Z,100083.83
2023-05-04T11:09:41.347Z,100073.10
2023-05-04T11:12:10.870Z,100064.83
2023-05-04T11:14:42.856Z,100058.06
2023-05-04T11:17:26.548Z,100050.95
2023-05-04T11:19:55.292Z,100050.66
2023-05-04T11:22:22.180Z,100049.56
2023-05-04T11:24:49.333Z,100050.08
2023-05-04T11:27:26.479Z,100048.56
2023-05-04T11:29:54.692Z,100050.25
2023-05-04T11:32:23.172Z,100043.95
2023-05-04T11:34:50.845Z,100041.23
2023-05-04T11:37:18.696Z,100038.43
2023-05-04T11:39:46.161Z,100035.77
2023-05-04T11:42:13.625Z,100022.91
2023-05-04T11:44:41.167Z,100018.19
2023-05-04T11:47:09.341Z,100010.63
2023-05-04T11:49:37.624Z,100012.13
2023-05-04T11:52:07.272Z,100011.04
2023-05-04T11:54:34.785Z,100003.91
2023-05-04T11:57:03.985Z,100002.55
2023-05-04T11:59:32.053Z,100006.22
2023-05-04T12:01:59.608Z,99995.16
2023-05-04T12:04:33.216Z,99995.95
2023-05-04T12:07:01.796Z,99990.84
2023-05-04T12:09:29.763Z,99991.73
2023-05-04T12:11:57.346Z,99988.04
2023-05-04T12:14:27.031Z,99982.32
2023-05-04T12:16:55.120Z,99981.29
2023-05-04T12:19:22.854Z,99971.53
2023-05-04T12:21:53.613Z,99973.80
2023-05-04T12:24:24.815Z,99974.36
2023-05-04T12:26:52.628Z,99978.15
2023-05-04T12:29:20.282Z,99974.70
2023-05-04T12:31:47.846Z,99972.38
2023-05-04T12:34:15.190Z,99973.69
2023-05-04T12:36:44.788Z,99975.81
2023-05-04T12:39:12.043Z,99975.22
2023-05-04T12:41:40.523Z,99977.68
2023-05-04T12:44:09.415Z,99977.33
2023-05-04T12:46:37.704Z,99972.86
2023-05-04T12:49:05.018Z,99967.73
2023-05-04T12:51:32.806Z,99962.95
2023-05-04T12:54:00.368Z,99962.73
2023-05-04T12:56:27.723Z,99965.08
2023-05-04T12:58:55.384Z,99959.99
2023-05-04T13:01:22.959Z,99959.67
2023-05-04T13:03:50.488Z,99952.05
2023-05-04T13:06:17.960Z,99945.85
2023-05-04T13:08:47.464Z,99938.55
2023-05-04T13:11:19.320Z,99935.35
2023-05-04T13:13:46.882Z,99932.99
2023-05-04T13:16:14.155Z,99925.66
2023-05-04T13:18:41.731Z,99924.33
2023-05-04T13:21:09.563Z,99916.34
2023-05-04T13:23:37.835Z,99916.59
2023-05-04T13:26:05.602Z,99910.80
2023-05-04T13:28:32.840Z,99911.52
2023-05-04T13:31:01.274Z,99905.05
2023-05-04T13:33:30.733Z,99905.27
2023-05-04T13:35:59.012Z,99912.16
2023-05-04T13:38:27.375Z,99909.70
2023-05-04T13:40:55.408Z,99902.99
2023-05-04T13:43:23.238Z,99908.64
2023-05-04T13:45:50.938Z,99905.81
2023-05-04T13:48:18.854Z,99899.88
2023-05-04T13:50:46.414Z,99895.95
2023-05-04T13:53:13.879Z,99892.04
2023-05-04T13:55:42.159Z,99887.24
2023-05-04T13:58:09.522Z,99891.73
2023-05-04T14:00:37.143Z,99894.52
2023-05-04T14:03:05.084Z,99883.86
2023-05-04T14:05:32.558Z,99884.96
2023-05-04T14:08:00.157Z,99878.71
2023-05-04T14:10:47.780Z,99877.38
2023-05-04T14:13:17.429Z,99868.92
2023-05-04T14:15:45.349Z,99868.84
2023-05-04T14:18:12.878Z,99863.46
2023-05-04T14:20:40.978Z,99860.94
2023-05-04T14:23:08.328Z,99864.26
2023-05-04T14:25:36.102Z,99862.41
2023-05-04T14:28:05.302Z,99858.69
2023-05-04T14:30:32.956Z,99856.84
2023-05-04T14:33:03.935Z,99852.44
2023-05-04T14:35:34.726Z,99844.97
2023-05-04T14:38:02.398Z,99846.35
2023-05-04T14:40:30.455Z,99840.29
2023-05-04T14:43:00.071Z,99839.77
2023-05-04T14:45:27.628Z,99833.24
2023-05-04T14:47:56.336Z,99832.58
2023-05-04T14:50:24.007Z,99835.58
2023-05-04T14:52:51.534Z,99837.88
2023-05-04T14:55:19.111Z,99842.40
2023-05-04T14:57:46.853Z,99842.85
2023-05-04T15:00:15.341Z,99844.40
2023-05-04T15:02:42.801Z,99844.09
2023-05-04T15:05:12.871Z,99843.14
2023-05-04T15:07:40.786Z,99846.56
2023-05-04T15:10:10.818Z,99842.31
2023-05-04T15:12:38.491Z,99839.20
2023-05-04T15:15:06.344Z,99838.58
2023-05-04T15:17:36.072Z,99836.70
2023-05-04T15:20:05.759Z,99835.60
2023-05-04T15:22:33.420Z,99838.18
2023-05-04T15:25:02.164Z,99837.35
2023-05-04T15:27:29.850Z,99837.94
2023-05-04T15:29:57.216Z,99837.04
2023-05-04T15:32:24.618Z,99838.89
2023-05-04T15:35:04.716Z,99838.88
2023-05-04T15:37:33.773Z,99845.21
2023-05-04T15:40:02.513Z,99845.52
2023-05-04T15:42:30.875Z,99848.98
2023-05-04T15:45:03.072Z,99844.31
2023-05-04T15:47:33.011Z,99843.52
2023-05-04T15:50:00.822Z,99842.23
2023-05-04T15:52:28.270Z,99838.32
2023-05-04T15:54:57.275Z,99836.69
2023-05-04T15:57:24.807Z,99842.94
2023-05-04T15:59:53.144Z,99842.15
2023-05-04T16:02:20.514Z,99841.51
2023-05-04T16:04:48.135Z,99850.48
2023-05-04T16:07:15.686Z,99851.75
2023-05-04T16:09:43.578Z,99852.06
2023-05-04T16:12:11.108Z,99845.63
2023-05-04T16:14:38.688Z,99843.95
2023-05-04T16:17:06.004Z,99845.38
2023-05-04T16:19:33.677Z,99844.80
2023-05-04T16:22:01.953Z,99848.67
2023-05-04T16:24:29.617Z,99852.98
2023-05-04T16:26:57.087Z,99853.88
2023-05-04T16:29:24.836Z,99855.20
2023-05-04T16:31:52.217Z,99855.95
2023-05-04T16:34:19.869Z,99866.04
2023-05-04T16:36:47.735Z,99867.55
2023-05-04T16:39:16.619Z,99863.17
2023-05-04T16:41:47.035Z,99863.84
2023-05-04T16:44:15.381Z,99860.41
2023-05-04T16:46:42.879Z,99862.29
2023-05-04T16:49:14.350Z,99858.95
2023-05-04T16:51:42.048Z,99858.21
2023-05-04T16:54:09.543Z,99861.98
2023-05-04T16:56:37.918Z,99861.33
2023-05-04T16:59:05.505Z,99858.72
2023-05-04T17:01:33.688Z,99858.80
2023-05-04T17:04:02.138Z,99860.89
2023-05-04T17:06:29.810Z,99862.98
2023-05-04T17:08:57.870Z,99866.11
2023-05-04T17:11:25.876Z,99867.79
2023-05-04T17:13:53.598Z,99872.48
2023-05-04T17:16:21.094Z,99872.02
2023-05-04T17:18:49.024Z,99882.05
2023-05-04T17:21:17.031Z,99878.91
2023-05-04T17:23:44.771Z,99879.22
2023-05-04T17:26:12.428Z,99887.15
2023-05-04T17:28:40.094Z,99885.44
2023-05-04T17:31:10.212Z,99881.73
2023-05-04T17:33:37.457Z,99887.23
2023-05-04T17:36:06.880Z,99888.95
2023-05-04T17:38:34.091Z,99887.16
2023-05-04T17:41:01.705Z,99891.27
2023-05-04T17:43:29.645Z,99893.25
2023-05-04T17:45:57.341Z,99888.45
2023-05-04T17:48:27.790Z,99886.38
2023-05-04T17:50:56.711Z,99889.79
2023-05-04T17:53:24.283Z,99891.09
2023-05-04T17:55:51.625Z,99893.86
2023-05-04T17:58:19.500Z,99891.00
2023-05-04T18:00:47.049Z,99886.79
2023-05-04T18:03:14.709Z,99886.44
2023-05-04T18:05:43.051Z,99886.08
2023-05-04T18:08:10.433Z,99882.63
2023-05-04T18:10:37.766Z,99887.02
2023-05-04T18:13:05.815Z,99886.40
2023-05-04T18:15:33.837Z,99885.48
2023-05-04T18:18:01.705Z,99884.25
2023-05-04T18:20:30.462Z,99889.77
2023-05-04T18:22:58.265Z,99893.80
2023-05-04T18:25:25.837Z,99894.61
2023-05-04T18:27:56.341Z,99891.88
2023-05-04T18:30:24.004Z,99894.07
2023-05-04T18:32:51.579Z,99892.71
2023-05-04T18:35:19.229Z,99893.81
2023-05-04T18:37:46.751Z,99885.21
2023-05-04T18:40:14.651Z,99879.36
2023-05-04T18:42:42.218Z,99877.81
2023-05-04T18:45:11.511Z,99871.56
2023-05-04T18:47:38.898Z,99868.81
2023-05-04T18:50:07.358Z,99867.28
2023-05-04T18:52:35.210Z,99864.66
2023-05-04T18:55:02.789Z,99860.96
2023-05-04T18:57:30.637Z,99865.81
2023-05-04T18:59:58.434Z,99860.15
2023-05-04T19:02:26.958Z,99860.05
2023-05-04T19:04:54.642Z,99858.74
2023-05-04T19:07:23.558Z,99860.61
2023-05-04T19:09:50.992Z,99857.42
2023-05-04T19:12:21.187Z,99855.86
2023-05-04T19:14:50.100Z,99854.46
2023-05-04T19:17:18.743Z,99853.11
2023-05-04T19:19:46.044Z,99852.94
2023-05-04T19:22:15.767Z,99850.17
2023-05-04T19:24:43.400Z,99847.61
2023-05-04T19:27:10.869Z,99845.66
2023-05-04T19:29:39.653Z,99847.23
2023-05-04T19:32:19.832Z,99853.13
2023-05-04T19:34:52.206Z,99853.58
2023-05-04T19:37:19.840Z,99853.77
2023-05-04T19:39:47.934Z,99854.13
2023-05-04T19:42:15.265Z,99850.24
2023-05-04T19:44:42.986Z,99849.67
2023-05-04T19:47:10.488Z,99847.40
2023-05-04T19:49:37.840Z,99848.99
2023-05-04T19:52:07.244Z,99847.25
2023-05-04T19:54:35.128Z,99848.31
2023-05-04T19:57:04.218Z,99844.11
2023-05-04T19:59:31.672Z,99843.00
2023-05-04T20:01:59.565Z,99842.65
2023-05-04T20:04:27.107Z,99840.02
2023-05-04T20:06:54.313Z,99835.38
2023-05-04T20:09:21.795Z,99839.78
2023-05-04T20:11:49.561Z,99840.18
2023-05-04T20:14:17.320Z,99837.08
2023-05-04T20:16:45.177Z,99836.01
2023-05-04T20:19:13.283Z,99835.20
2023-05-04T20:21:40.918Z,99835.83
2023-05-04T20:24:09.194Z,99834.88
2023-05-04T20:26:36.751Z,99835.84
2023-05-04T20:29:04.416Z,99831.70
2023-05-04T20:31:31.915Z,99831.89
2023-05-04T20:33:59.333Z,99828.84
2023-05-04T20:36:27.612Z,99831.57
2023-05-04T20:38:55.674Z,99829.66
2023-05-04T20:41:24.153Z,99825.61
2023-05-04T20:43:52.006Z,99828.78
2023-05-04T20:46:19.507Z,99824.58
2023-05-04T20:48:46.905Z,99824.92
2023-05-04T20:51:15.360Z,99827.06
2023-05-04T20:53:43.184Z,99822.65
2023-05-04T20:56:10.505Z,99825.96
2023-05-04T20:58:38.062Z,99823.09
2023-05-04T21:01:06.139Z,99821.84
2023-05-04T21:03:34.419Z,99823.72
2023-05-04T21:06:02.098Z,99823.70
2023-05-04T21:08:29.661Z,99824.70
2023-05-04T21:10:57.001Z,99824.81
2023-05-04T21:13:24.678Z,99823.25
2023-05-04T21:15:52.452Z,99822.69
2023-05-04T21:18:19.804Z,99824.07
2023-05-04T21:20:47.563Z,99825.06
2023-05-04T21:23:14.953Z,99821.67
2023-05-04T21:25:42.883Z,99822.88
2023-05-04T21:28:10.644Z,99820.38
2023-05-04T21:30:40.869Z,99820.71
2023-05-04T21:33:08.293Z,99816.98
2023-05-04T21:35:36.098Z,99815.91
2023-05-04T21:38:03.589Z,99811.80
2023-05-04T21:40:31.000Z,99808.78
2023-05-04T21:42:59.078Z,99807.26
2023-05-04T21:45:26.940Z,99807.23
2023-05-04T21:47:54.546Z,99811.98
2023-05-04T21:50:22.167Z,99807.04
2023-05-04T21:52:49.962Z,99807.55
2023-05-04T21:55:17.990Z,99807.39
2023-05-04T21:57:45.450Z,99806.52
2023-05-04T22:00:17.840Z,99801.90
2023-05-04T22:02:45.220Z,99805.03
2023-05-04T22:05:13.041Z,99802.24
2023-05-04T22:07:40.703Z,99804.75
2023-05-04T22:10:08.746Z,99801.50
2023-05-04T22:12:36.873Z,99802.02
2023-05-04T22:15:05.022Z,99799.03
2023-05-04T22:17:32.413Z,99793.20
2023-05-04T22:19:59.827Z,99788.59
2023-05-04T22:22:27.093Z,99790.30
2023-05-04T22:24:54.432Z,99780.96
2023-05-04T22:27:21.720Z,99774.89
2023-05-04T22:29:49.451Z,99769.29
2023-05-04T22:32:16.752Z,99763.05
2023-05-04T22:34:44.311Z,99757.00
2023-05-04T22:37:12.445Z,99750.27
2023-05-04T22:39:40.096Z,99743.65
2023-05-04T22:42:08.065Z,99744.00
2023-05-04T22:44:35.732Z,99741.40
2023-05-04T22:47:04.309Z,99742.47
2023-05-04T22:49:31.776Z,99738.88
2023-05-04T22:51:59.228Z,99737.77
2023-05-04T22:54:27.110Z,99733.47
2023-05-04T22:56:54.758Z,99727.46
2023-05-04T22:59:22.110Z,99722.66
2023-05-04T23:01:50.597Z,99723.11
2023-05-04T23:04:18.045Z,99723.55
2023-05-04T23:06:45.617Z,99723.83
2023-05-04T23:09:14.608Z,99724.33
2023-05-04T23:11:42.256Z,99727.05
2023-05-04T23:14:10.435Z,99718.85
2023-05-04T23:16:38.119Z,99717.05
2023-05-04T23:19:05.654Z,99713.99
2023-05-04T23:21:33.635Z,99712.23
2023-05-04T23:24:01.088Z,99705.78
2023-05-04T23:26:28.945Z,99703.20
2023-05-04T23:28:56.419Z,99703.39
2023-05-04T23:31:24.649Z,99699.77
2023-05-04T23:33:52.333Z,99699.70
2023-05-04T23:36:19.902Z,99697.44
2023-05-04T23:38:47.459Z,99695.83
2023-05-04T23:41:14.911Z,99691.19
2023-05-04T23:43:42.476Z,99690.98
2023-05-04T23:46:09.758Z,99688.29
2023-05-04T23:48:37.489Z,99689.02
2023-05-04T23:51:05.505Z,99690.13
2023-05-04T23:53:37.111Z,99689.02
2023-05-04T23:56:05.179Z,99687.21
2023-05-04T23:58:33.413Z,99692.11
